Flight Track Log - Related Links

Times and Time Zones

All times are in EDT time to prevent confusion due to time zone crossing. See the KAP291 flight status page for this flight to view local times or setup timezone preferences in your user account.

Time Position Orientation Groundspeed Altitude Reporting Facility
EDT Latitude Longitude Course Direction KTS MPH feet Rate Location/Type
Wed 12:07:00 PM 41.3804 -70.1560 331° Northwest  Level FlightAware Approximate
Wed 12:08:00 PM 41.4059 -70.1752 331° Northwest  Level FlightAware Approximate
Wed 12:09:00 PM 41.4249 -70.1915 323° Northwest  Level FlightAware Approximate
Wed 12:10:00 PM 41.4482 -70.2149 323° Northwest  Level FlightAware Approximate
Wed 12:11:00 PM 41.4734 -70.2347 330° Northwest  Level FlightAware Approximate
Wed 12:12:00 PM 41.4987 -70.2543 330° Northwest  Level FlightAware Approximate
Wed 12:13:00 PM 41.5240 -70.2738 330° Northwest  Level FlightAware Approximate
Wed 12:14:00 PM 41.5493 -70.2934 330° Northwest  Level FlightAware Approximate
Wed 12:15:00 PM 41.5746 -70.3130 330° Northwest  Level FlightAware Approximate
Wed 12:16:00 PM 41.5999 -70.3326 330° Northwest  Level FlightAware Approximate
Wed 12:17:00 PM 41.6252 -70.3522 330° Northwest  Level FlightAware Approximate
Wed 12:18:00 PM 41.6505 -70.3719 330° Northwest  Level FlightAware Approximate
Wed 12:18:27 PM 41.7000 -70.5500 330° Northwest 150 173 6,000  Level KA90
Wed 12:19:00 PM 41.6758 -70.3915 330° Northwest  Level FlightAware Approximate
Wed 12:19:51 PM 41.7500 -70.5833 334° Northwest 145 167 6,100  Level KA90
Wed 12:20:00 PM 41.7010 -70.4112 330° Northwest  Level FlightAware Approximate
Wed 12:20:46 PM 41.7833 -70.6000 340° North 147 169 6,000  Level KA90
Wed 12:21:00 PM 41.7263 -70.4309 330° Northwest  Level FlightAware Approximate
Wed 12:21:46 PM 41.8333 -70.6333 334° Northwest 160 184 6,000  Level KA90
Wed 12:22:00 PM 41.7516 -70.4506 330° Northwest  Level FlightAware Approximate
Wed 12:22:52 PM 41.8667 -70.6500 340° North 161 185 6,000  Level KA90
Wed 12:23:00 PM 41.7769 -70.4703 330° Northwest  Level FlightAware Approximate
Wed 12:23:52 PM 41.9167 -70.6833 334° Northwest 149 171 6,000  Level KA90
Wed 12:24:52 PM 41.9333 -70.7167 304° West 155 178 6,000 -50 Level KA90
Wed 12:25:52 PM 41.9667 -70.7667 312° West 149 171 5,900 -381 Descending KA90
Wed 12:26:58 PM 42.0000 -70.8167 312° West 163 188 5,200 -650 Descending KA90
Wed 12:27:52 PM 42.0167 -70.8667 294° West 170 196 4,600 -750 Descending KA90
Wed 12:28:58 PM 42.0500 -70.9167 312° West 177 204 3,700 -650 Descending KA90
Wed 12:29:52 PM 42.0833 -70.9667 312° West 172 198 3,300 -316 Descending KA90
Wed 12:30:52 PM 42.1000 -71.0333 289° West 164 189 3,100 -150 Descending KA90
Wed 12:31:52 PM 42.1167 -71.0833 294° West 153 176 3,000 -45 Descending KA90
Wed 12:33:04 PM 42.1833 -71.0833 360° North 174 200 3,000  Level KA90
Wed 12:33:52 PM 42.2167 -71.0833 360° North 181 208 3,000 -444 Level KA90
Wed 12:34:52 PM 42.2667 -71.0500 26° Northeast 165 190 2,200 -818 Descending KA90
Wed 12:36:04 PM 42.3000 -71.0333 20° North 135 155 1,200 -727 Descending KA90
Wed 12:37:04 PM 42.3333 -71.0167 20° North 130 150 600 -600 Descending KA90
Wed 12:39:00 PM 42.3500 -71.0000 North  Level FlightAware Approximate

Login

Don't have an account? Register now (free) for customized features, flight alerts, and more!